Bavaria, Kansas
Current Conditions -  °F | °C
As of 10:53 PM on Saturday 22 Nov 2014 (Local Time) from KSLN Reporting Station
Overcast Overcast  
Wind Chill: 56°   Ceiling: 1600
Heat Index: 56°   Visibility: 10mi
Dew Point: 51°   Wind: 22mph
Humidity: 84%   Direction: 190°S
Pressure: 29.61"   Gusts: 31mph
Location:  38.8424°N, 97.6193°W
Report Text: KSLN 230453Z AUTO 19019G27KT 10SM OVC016 13/11 A2961 RMK AO2 PK WND 19027/0433 SLP023 T01330106
Loading
Personal Weather Stations






























Interactive Weather Map New forecast layout! Learn more

10-Day Weather Forecast

Advertisements
Track Severe Weather on mobile